Time;durP1;ratioP1;P1;durP2;ratioP2;P2;SDS_P1;SDS_P2;PMS_P1;PMS_P2;Temp;Humidity;BMP_temperature;BMP_pressure;BME280_temperature;BME280_humidity;BME280_pressure;Samples;Min_cycle;Max_cycle;Signal;HPM_P1;HPM_P2
2022/01/01 00:01:33;;;;;;;22.85;14.50;;;12.80;99.90;;;;;;5063743;28;20175;-85
2022/01/01 00:03:59;;;;;;;23.80;12.82;;;12.80;99.90;;;;;;5058112;28;20240;-85
2022/01/01 00:06:24;;;;;;;18.45;12.70;;;12.80;99.90;;;;;;5057519;28;20194;-84
2022/01/01 00:08:50;;;;;;;16.88;11.98;;;12.80;99.90;;;;;;5056662;28;20171;-85
2022/01/01 00:11:16;;;;;;;23.27;12.60;;;12.80;99.90;;;;;;5056236;28;20213;-84
2022/01/01 00:13:42;;;;;;;19.90;11.65;;;12.80;99.90;;;;;;5055680;28;20209;-84
2022/01/01 00:16:09;;;;;;;18.40;11.85;;;12.80;99.90;;;;;;5050191;28;20186;-84
2022/01/01 00:18:38;;;;;;;19.27;11.27;;;12.70;99.90;;;;;;5062181;28;20202;-84
2022/01/01 00:21:05;;;;;;;16.23;12.13;;;12.70;99.90;;;;;;5061533;28;20179;-84
2022/01/01 00:23:32;;;;;;;17.08;11.32;;;12.70;99.90;;;;;;5056624;28;20178;-84
2022/01/01 00:25:58;;;;;;;15.63;10.75;;;12.70;99.90;;;;;;5054431;28;20214;-84
2022/01/01 00:28:24;;;;;;;18.45;11.73;;;12.70;99.90;;;;;;5039488;28;20186;-84
2022/01/01 00:30:50;;;;;;;20.42;11.88;;;12.70;99.90;;;;;;5038160;28;20314;-84
2022/01/01 00:33:16;;;;;;;18.45;11.07;;;12.60;99.90;;;;;;5041777;28;20179;-84
2022/01/01 00:35:41;;;;;;;21.88;11.63;;;12.60;99.90;;;;;;5043225;28;20197;-84
2022/01/01 00:38:08;;;;;;;21.45;11.00;;;12.60;99.90;;;;;;5044627;28;20182;-84
2022/01/01 00:40:33;;;;;;;19.63;11.40;;;12.60;99.90;;;;;;5043862;28;20171;-84
2022/01/01 00:43:02;;;;;;;21.65;11.75;;;12.60;99.90;;;;;;5044292;28;20183;-85
2022/01/01 00:45:28;;;;;;;18.67;11.13;;;12.60;99.90;;;;;;5045133;28;20218;-84
2022/01/01 00:47:54;;;;;;;16.63;11.50;;;12.60;99.90;;;;;;5045140;28;20250;-84
2022/01/01 00:50:20;;;;;;;19.70;10.77;;;12.60;99.90;;;;;;5045071;28;20541;-84
2022/01/01 00:52:46;;;;;;;21.75;10.88;;;12.60;99.90;;;;;;5045743;28;20181;-84
2022/01/01 00:55:12;;;;;;;18.48;9.77;;;12.60;99.90;;;;;;5059647;28;20174;-86
2022/01/01 00:57:38;;;;;;;19.83;11.35;;;12.60;99.90;;;;;;5041854;28;20556;-86
2022/01/01 01:00:06;;;;;;;16.23;10.18;;;12.60;99.90;;;;;;5045252;28;20632;-85
2022/01/01 01:02:31;;;;;;;21.77;11.30;;;12.60;99.90;;;;;;5077171;28;20178;-85
2022/01/01 01:04:58;;;;;;;25.67;11.52;;;12.60;99.90;;;;;;5063730;28;20181;-85
2022/01/01 01:07:23;;;;;;;18.90;11.75;;;12.60;99.90;;;;;;5062980;28;20179;-86
2022/01/01 01:09:50;;;;;;;17.67;10.63;;;12.60;99.90;;;;;;5063494;28;20186;-86
2022/01/01 01:12:21;;;;;;;20.80;10.10;;;12.60;99.90;;;;;;5063300;28;20253;-85
2022/01/01 01:14:47;;;;;;;21.92;11.38;;;12.50;99.90;;;;;;5063513;28;20238;-86
2022/01/01 01:17:13;;;;;;;18.23;11.32;;;12.50;99.90;;;;;;5062033;28;20201;-86
2022/01/01 01:19:39;;;;;;;19.67;11.27;;;12.50;99.90;;;;;;5063442;28;20178;-85
2022/01/01 01:22:06;;;;;;;23.52;11.50;;;12.50;99.90;;;;;;5060404;28;20189;-87
2022/01/01 01:24:33;;;;;;;21.90;11.55;;;12.50;99.90;;;;;;5057338;28;20179;-87
2022/01/01 01:27:02;;;;;;;20.75;11.30;;;12.50;99.90;;;;;;5056052;28;20252;-86
2022/01/01 01:29:30;;;;;;;23.25;11.98;;;12.50;99.90;;;;;;5056339;28;20198;-86
2022/01/01 01:31:56;;;;;;;22.45;12.00;;;12.50;99.90;;;;;;5057582;28;20348;-86
2022/01/01 01:34:22;;;;;;;19.30;11.63;;;12.50;99.90;;;;;;5060176;28;20170;-84
2022/01/01 01:36:48;;;;;;;24.17;12.57;;;12.50;99.90;;;;;;5058884;28;20285;-84
2022/01/01 01:39:14;;;;;;;24.13;12.82;;;12.60;99.90;;;;;;5060804;28;20216;-85
2022/01/01 01:41:42;;;;;;;21.50;12.30;;;12.50;99.90;;;;;;5062987;28;20174;-85
2022/01/01 01:44:31;;;;;;;24.65;12.30;;;12.60;99.90;;;;;;5065438;28;20182;-85
2022/01/01 01:46:59;;;;;;;24.63;12.77;;;12.60;99.90;;;;;;5062030;28;20204;-84
2022/01/01 01:49:26;;;;;;;23.23;12.30;;;12.50;99.90;;;;;;5062702;28;20210;-84
2022/01/01 01:51:52;;;;;;;25.40;12.30;;;12.50;99.90;;;;;;5062408;28;20174;-85
2022/01/01 01:54:18;;;;;;;23.95;12.95;;;12.50;99.90;;;;;;5060028;28;20576;-86
2022/01/01 01:56:45;;;;;;;26.83;12.02;;;12.50;99.90;;;;;;5059832;28;20202;-86
2022/01/01 01:59:12;;;;;;;30.27;13.63;;;12.50;99.90;;;;;;5057924;28;20174;-86
2022/01/01 02:01:38;;;;;;;26.73;14.45;;;12.40;99.90;;;;;;5057708;28;20642;-84
2022/01/01 02:04:04;;;;;;;23.13;13.00;;;12.40;99.90;;;;;;5058655;28;20201;-85
2022/01/01 02:06:30;;;;;;;30.67;13.45;;;12.40;99.90;;;;;;5057123;28;20193;-86
2022/01/01 02:08:56;;;;;;;23.73;13.10;;;12.40;99.90;;;;;;5057633;28;20174;-85
2022/01/01 02:11:23;;;;;;;25.98;13.05;;;12.40;99.90;;;;;;5056729;28;20175;-84
2022/01/01 02:18:53;;;;;;;26.15;11.57;;;12.40;99.90;;;;;;5056031;28;20642;-83
2022/01/01 02:21:20;;;;;;;24.17;11.77;;;12.30;99.90;;;;;;5056290;28;20167;-85
2022/01/01 02:23:47;;;;;;;23.33;12.50;;;12.30;99.90;;;;;;5056864;28;20668;-85
2022/01/01 02:26:15;;;;;;;20.58;11.98;;;12.40;99.90;;;;;;5056914;28;20628;-85
2022/01/01 02:28:50;;;;;;;17.73;11.65;;;12.40;99.90;;;;;;5056898;28;20182;-85
2022/01/01 02:31:16;;;;;;;24.90;11.48;;;12.40;99.90;;;;;;5055546;28;20225;-80
2022/01/01 02:33:42;;;;;;;25.52;11.20;;;12.40;99.90;;;;;;5057809;28;20179;-81
2022/01/01 02:36:08;;;;;;;22.58;11.50;;;12.40;99.90;;;;;;5058876;28;20201;-80
2022/01/01 02:38:35;;;;;;;22.17;11.95;;;12.40;99.90;;;;;;5058521;28;20254;-80
2022/01/01 02:41:02;;;;;;;20.60;11.77;;;12.40;99.90;;;;;;5059695;28;20232;-81
2022/01/01 02:43:27;;;;;;;24.02;11.40;;;12.40;99.90;;;;;;5058690;28;20186;-81
2022/01/01 02:45:53;;;;;;;19.95;11.05;;;12.40;99.90;;;;;;5058565;28;20691;-81
2022/01/01 02:48:20;;;;;;;24.50;11.32;;;12.40;99.90;;;;;;5059732;28;20176;-80
2022/01/01 02:50:46;;;;;;;26.17;10.65;;;12.40;99.90;;;;;;5058209;28;20291;-80
2022/01/01 02:53:15;;;;;;;17.20;10.23;;;12.40;99.90;;;;;;5058163;28;20170;-80
2022/01/01 02:55:43;;;;;;;18.88;10.52;;;12.40;99.90;;;;;;5058273;28;20198;-80
2022/01/01 02:58:13;;;;;;;17.42;9.35;;;12.40;99.90;;;;;;5057999;28;20631;-80
2022/01/01 03:00:40;;;;;;;20.60;9.70;;;12.40;99.90;;;;;;5058086;28;20228;-80
2022/01/01 03:03:06;;;;;;;22.40;11.45;;;12.30;99.90;;;;;;5058319;28;20273;-81
2022/01/01 03:05:32;;;;;;;19.95;10.43;;;12.30;99.90;;;;;;5059969;28;20217;-80
2022/01/01 03:07:58;;;;;;;21.23;10.32;;;12.30;99.90;;;;;;5059768;28;20178;-81
2022/01/01 03:10:24;;;;;;;19.05;10.55;;;12.30;99.90;;;;;;5058389;28;20297;-80
2022/01/01 03:12:50;;;;;;;26.48;11.25;;;12.30;99.90;;;;;;5059939;28;20175;-81
2022/01/01 03:15:16;;;;;;;23.35;10.43;;;12.40;99.90;;;;;;5057565;28;20516;-81
2022/01/01 03:17:42;;;;;;;21.30;10.90;;;12.40;99.90;;;;;;5058175;28;20181;-81
2022/01/01 03:20:08;;;;;;;20.60;10.48;;;12.40;99.90;;;;;;5059663;28;20643;-80
2022/01/01 03:22:34;;;;;;;18.38;10.80;;;12.40;99.90;;;;;;5058096;28;20671;-81
2022/01/01 03:25:00;;;;;;;21.83;10.02;;;12.40;99.90;;;;;;5057624;28;20217;-81
2022/01/01 03:27:26;;;;;;;18.25;10.73;;;12.40;99.90;;;;;;5057886;28;20206;-81
2022/01/01 03:29:51;;;;;;;20.15;10.15;;;12.40;99.90;;;;;;5057523;28;20198;-80
2022/01/01 03:32:17;;;;;;;22.05;11.27;;;12.40;99.90;;;;;;5058162;28;20183;-81
2022/01/01 03:34:43;;;;;;;20.88;11.40;;;12.40;99.90;;;;;;5057598;28;20174;-80
2022/01/01 03:37:09;;;;;;;21.05;10.68;;;12.40;99.90;;;;;;5056914;28;20197;-80
2022/01/01 03:39:35;;;;;;;20.30;10.82;;;12.40;99.90;;;;;;5056937;28;20201;-80
2022/01/01 03:42:01;;;;;;;24.15;11.00;;;12.40;99.90;;;;;;5057252;28;20686;-81
2022/01/01 03:44:26;;;;;;;23.27;11.60;;;12.50;99.90;;;;;;5057686;28;20547;-80
2022/01/01 03:46:59;;;;;;;19.27;10.77;;;12.50;99.90;;;;;;5057755;28;20198;-82
2022/01/01 03:49:25;;;;;;;21.23;10.65;;;12.50;99.90;;;;;;5058890;28;20343;-82
2022/01/01 03:51:51;;;;;;;20.45;10.15;;;12.50;99.90;;;;;;5057828;28;20175;-82
2022/01/01 03:54:17;;;;;;;23.83;9.90;;;12.50;99.90;;;;;;5057532;28;20193;-81
2022/01/01 03:56:43;;;;;;;21.77;10.55;;;12.50;99.90;;;;;;5057800;28;20293;-81
2022/01/01 03:59:08;;;;;;;17.98;10.30;;;12.50;99.90;;;;;;5057367;28;20182;-81
2022/01/01 04:01:34;;;;;;;21.65;11.52;;;12.40;99.90;;;;;;5057363;28;20200;-81
2022/01/01 04:04:00;;;;;;;26.25;11.40;;;12.40;99.90;;;;;;5057373;28;20178;-81
2022/01/01 04:06:26;;;;;;;19.60;11.25;;;12.40;99.90;;;;;;5056931;28;20202;-81
2022/01/01 04:08:51;;;;;;;22.75;11.00;;;12.40;99.90;;;;;;5057341;28;20693;-81
2022/01/01 04:11:17;;;;;;;20.15;10.48;;;12.40;99.90;;;;;;5057311;28;20210;-81
2022/01/01 04:13:43;;;;;;;23.08;11.75;;;12.40;99.90;;;;;;5057098;28;20178;-81
2022/01/01 04:16:10;;;;;;;18.80;10.75;;;12.40;99.90;;;;;;5057040;28;20194;-81
2022/01/01 04:18:39;;;;;;;21.35;11.02;;;12.40;99.90;;;;;;5057462;28;20178;-81
2022/01/01 04:21:09;;;;;;;24.92;12.25;;;12.40;99.90;;;;;;5056941;28;20175;-81
2022/01/01 04:23:36;;;;;;;22.80;11.63;;;12.40;99.90;;;;;;5057178;28;20187;-81
2022/01/01 04:26:02;;;;;;;26.88;12.48;;;12.40;99.90;;;;;;5056854;28;20573;-81
2022/01/01 04:28:28;;;;;;;21.80;11.90;;;12.40;99.90;;;;;;5058795;28;20607;-81
2022/01/01 04:30:54;;;;;;;25.08;11.80;;;12.30;99.90;;;;;;5056032;28;20202;-81
2022/01/01 04:33:20;;;;;;;27.08;12.60;;;12.30;99.90;;;;;;5056387;28;20175;-81
2022/01/01 04:35:46;;;;;;;22.50;11.65;;;12.30;99.90;;;;;;5056971;28;20217;-81
2022/01/01 04:38:28;;;;;;;21.52;12.07;;;12.30;99.90;;;;;;5057101;28;20220;-81
2022/01/01 04:40:53;;;;;;;25.08;12.00;;;12.30;99.90;;;;;;5056318;28;20174;-81
2022/01/01 04:43:19;;;;;;;24.25;10.82;;;12.30;99.90;;;;;;5056251;28;20231;-81
2022/01/01 04:45:45;;;;;;;23.77;10.55;;;12.40;99.90;;;;;;5055833;28;20199;-81
2022/01/01 04:48:10;;;;;;;22.08;10.55;;;12.40;99.90;;;;;;5056734;28;20178;-81
2022/01/01 04:50:36;;;;;;;19.08;10.43;;;12.30;99.90;;;;;;5056352;28;20670;-81
2022/01/01 04:53:02;;;;;;;25.58;11.07;;;12.40;99.90;;;;;;5056397;28;20178;-81
2022/01/01 04:55:28;;;;;;;20.10;10.55;;;12.40;99.90;;;;;;5055795;28;20539;-81
2022/01/01 04:57:54;;;;;;;23.15;11.02;;;12.40;99.90;;;;;;5056268;28;20190;-81
2022/01/01 05:00:20;;;;;;;20.92;10.93;;;12.40;99.90;;;;;;5057734;28;20605;-81
2022/01/01 05:02:46;;;;;;;23.80;11.20;;;12.40;99.90;;;;;;5056394;28;20189;-81
2022/01/01 05:05:11;;;;;;;21.63;10.35;;;12.40;99.90;;;;;;5056713;28;20171;-81
2022/01/01 05:07:37;;;;;;;16.70;9.85;;;12.40;99.90;;;;;;5056540;28;20194;-81
2022/01/01 05:10:03;;;;;;;19.05;9.88;;;12.40;99.90;;;;;;5054829;28;20206;-81
2022/01/01 05:12:29;;;;;;;20.35;10.38;;;12.40;99.90;;;;;;5056342;28;20205;-81
2022/01/01 05:14:55;;;;;;;20.75;9.77;;;12.40;99.90;;;;;;5056181;28;20586;-84
2022/01/01 05:17:20;;;;;;;23.13;10.70;;;12.30;99.90;;;;;;5057244;28;20256;-84
2022/01/01 05:19:46;;;;;;;18.65;9.82;;;12.30;99.90;;;;;;5057822;28;20192;-84
2022/01/01 05:22:12;;;;;;;15.73;9.07;;;12.30;99.90;;;;;;5059524;28;20232;-84
2022/01/01 05:24:37;;;;;;;20.33;9.45;;;12.30;99.90;;;;;;5055947;28;20669;-83
2022/01/01 05:27:03;;;;;;;14.15;8.75;;;12.30;99.90;;;;;;5056650;28;20587;-84
2022/01/01 05:29:29;;;;;;;16.90;8.90;;;12.30;99.90;;;;;;5057507;28;20206;-84
2022/01/01 05:31:55;;;;;;;18.80;9.23;;;12.30;99.90;;;;;;5054056;28;20249;-83
2022/01/01 05:34:20;;;;;;;16.80;8.15;;;12.30;99.90;;;;;;5053750;28;20265;-83
2022/01/01 05:36:46;;;;;;;17.40;9.15;;;12.40;99.90;;;;;;5054647;28;20186;-83
2022/01/01 05:39:12;;;;;;;18.98;9.18;;;12.40;99.90;;;;;;5053098;28;20179;-83
2022/01/01 05:41:38;;;;;;;15.57;8.25;;;12.30;99.90;;;;;;5053430;28;20185;-83
2022/01/01 05:44:05;;;;;;;21.05;8.77;;;12.30;99.90;;;;;;5053377;28;20178;-83
2022/01/01 05:46:31;;;;;;;16.05;8.13;;;12.30;99.90;;;;;;5053043;28;20194;-81
2022/01/01 05:48:58;;;;;;;16.48;8.43;;;12.30;99.90;;;;;;5054561;28;20254;-81
2022/01/01 05:51:24;;;;;;;20.27;9.10;;;12.30;99.90;;;;;;5053178;28;20241;-81
2022/01/01 05:53:49;;;;;;;20.17;8.15;;;12.30;99.90;;;;;;5053151;28;20179;-81
2022/01/01 05:56:15;;;;;;;14.40;7.95;;;12.30;99.90;;;;;;5053019;28;20248;-81
2022/01/01 05:58:42;;;;;;;20.02;8.82;;;12.30;99.90;;;;;;5053087;28;20178;-80
2022/01/01 06:01:07;;;;;;;14.20;8.20;;;12.30;99.90;;;;;;5052974;28;20261;-82
2022/01/01 06:03:33;;;;;;;14.07;7.68;;;12.30;99.90;;;;;;5052729;28;20232;-80
2022/01/01 06:05:59;;;;;;;16.27;7.97;;;12.30;99.90;;;;;;5053089;28;20838;-81
2022/01/01 06:08:28;;;;;;;16.33;7.63;;;12.30;99.90;;;;;;5051925;28;20202;-81
2022/01/01 06:10:54;;;;;;;14.23;7.80;;;12.30;99.90;;;;;;5053992;28;20285;-81
2022/01/01 06:13:20;;;;;;;16.98;7.50;;;12.30;99.90;;;;;;5052983;28;20186;-81
2022/01/01 06:15:46;;;;;;;14.93;7.70;;;12.30;99.90;;;;;;5053968;28;20190;-82
2022/01/01 06:18:12;;;;;;;19.05;7.82;;;12.30;99.90;;;;;;5054163;28;20170;-81
2022/01/01 06:20:38;;;;;;;12.52;7.30;;;12.30;99.90;;;;;;5053364;28;20201;-81
2022/01/01 06:23:06;;;;;;;17.33;7.13;;;12.30;99.90;;;;;;5052931;28;20178;-83
2022/01/01 06:25:35;;;;;;;17.88;6.95;;;12.20;99.90;;;;;;5053801;28;20281;-83
2022/01/01 06:28:02;;;;;;;12.77;7.20;;;12.30;99.90;;;;;;5053341;28;20186;-83
2022/01/01 06:30:33;;;;;;;13.50;6.50;;;12.30;99.90;;;;;;5052707;28;20286;-82
2022/01/01 06:33:10;;;;;;;10.90;6.57;;;12.20;99.90;;;;;;5052892;28;20224;-83
2022/01/01 06:35:41;;;;;;;12.05;6.68;;;12.20;99.90;;;;;;5053145;28;20226;-83
2022/01/01 06:38:07;;;;;;;15.95;7.03;;;12.20;99.90;;;;;;5052711;28;20254;-80
2022/01/01 06:40:33;;;;;;;15.13;6.85;;;12.20;99.90;;;;;;5052393;28;20256;-80
2022/01/01 06:42:58;;;;;;;13.48;6.68;;;12.20;99.90;;;;;;5052581;28;20554;-80
2022/01/01 06:45:24;;;;;;;12.57;6.78;;;12.20;99.90;;;;;;5052695;28;20205;-80
2022/01/01 06:47:50;;;;;;;15.95;6.68;;;12.20;99.90;;;;;;5054239;28;20175;-80
2022/01/01 06:50:16;;;;;;;13.98;7.18;;;12.30;99.90;;;;;;5054042;28;20670;-80
2022/01/01 06:52:43;;;;;;;15.45;7.10;;;12.30;99.90;;;;;;5054547;28;20249;-80
2022/01/01 06:55:10;;;;;;;12.10;6.32;;;12.30;99.90;;;;;;5052436;28;20209;-80
2022/01/01 06:57:36;;;;;;;14.85;6.97;;;12.30;99.90;;;;;;5052555;28;20694;-80
2022/01/01 07:00:02;;;;;;;12.32;6.72;;;12.20;99.90;;;;;;5052482;28;20183;-81
2022/01/01 07:02:28;;;;;;;12.57;6.80;;;12.30;99.90;;;;;;5053546;28;20182;-81
2022/01/01 07:04:54;;;;;;;16.58;6.70;;;12.30;99.90;;;;;;5052572;28;20185;-82
2022/01/01 07:07:19;;;;;;;13.30;6.72;;;12.20;99.90;;;;;;5052366;28;20724;-81
2022/01/01 07:09:45;;;;;;;12.02;5.85;;;12.20;99.90;;;;;;5052252;28;20278;-81
2022/01/01 07:12:11;;;;;;;10.45;6.63;;;12.20;99.90;;;;;;5052083;28;20189;-83
2022/01/01 07:14:36;;;;;;;10.52;6.82;;;12.20;99.90;;;;;;5052387;28;20185;-80
2022/01/01 07:17:02;;;;;;;12.15;7.00;;;12.20;99.90;;;;;;5051955;28;20194;-81
2022/01/01 07:19:28;;;;;;;16.45;7.25;;;12.20;99.90;;;;;;5054120;28;20182;-80
2022/01/01 07:21:59;;;;;;;11.32;6.45;;;12.20;99.90;;;;;;5055896;28;20182;-81
2022/01/01 07:24:26;;;;;;;11.00;6.35;;;12.20;99.90;;;;;;5057491;28;20623;-82
2022/01/01 07:26:51;;;;;;;11.60;5.70;;;12.20;99.90;;;;;;5056061;28;20218;-80
2022/01/01 07:29:17;;;;;;;11.30;6.57;;;12.20;99.90;;;;;;5055804;28;20189;-80
2022/01/01 07:31:43;;;;;;;11.38;5.30;;;12.20;99.90;;;;;;5056050;28;20257;-80
2022/01/01 07:34:09;;;;;;;14.43;6.53;;;12.20;99.90;;;;;;5056092;28;20174;-80
2022/01/01 07:36:34;;;;;;;13.10;6.15;;;12.20;99.90;;;;;;5055903;28;20194;-80
2022/01/01 07:39:00;;;;;;;15.10;6.80;;;12.20;99.90;;;;;;5056188;28;20224;-80
2022/01/01 07:41:26;;;;;;;13.45;6.00;;;12.20;99.90;;;;;;5056901;28;20179;-80
2022/01/01 07:43:51;;;;;;;16.10;6.30;;;12.30;99.90;;;;;;5057195;28;20174;-80
2022/01/01 07:46:17;;;;;;;15.85;6.88;;;12.30;99.90;;;;;;5055443;28;20221;-80
2022/01/01 07:48:43;;;;;;;12.32;5.53;;;12.20;99.90;;;;;;5055625;28;20224;-80
2022/01/01 07:51:08;;;;;;;11.15;6.75;;;12.30;99.90;;;;;;5055511;28;20244;-80
2022/01/01 07:53:34;;;;;;;9.75;5.10;;;12.30;99.90;;;;;;5055485;28;20548;-80
2022/01/01 07:56:00;;;;;;;18.70;6.65;;;12.30;99.90;;;;;;5055347;28;20203;-80
2022/01/01 07:58:26;;;;;;;12.05;6.15;;;12.30;99.90;;;;;;5055355;28;20705;-80
2022/01/01 08:00:51;;;;;;;12.95;5.70;;;12.30;99.90;;;;;;5055133;28;20229;-80
2022/01/01 08:03:17;;;;;;;14.05;6.38;;;12.30;99.90;;;;;;5054986;28;20179;-80
2022/01/01 08:05:43;;;;;;;10.73;5.38;;;12.30;99.90;;;;;;5056587;28;20198;-79
2022/01/01 08:08:08;;;;;;;15.30;6.25;;;12.30;99.90;;;;;;5055548;28;20217;-81
2022/01/01 08:10:37;;;;;;;8.05;5.15;;;12.40;99.90;;;;;;5055476;28;20202;-81
2022/01/01 08:13:04;;;;;;;12.45;5.45;;;12.40;99.90;;;;;;5057109;28;20162;-80
2022/01/01 08:15:30;;;;;;;11.88;5.18;;;12.40;99.90;;;;;;5055400;28;20191;-80
2022/01/01 08:17:55;;;;;;;9.63;4.95;;;12.40;99.90;;;;;;5055143;28;20178;-81
2022/01/01 08:20:22;;;;;;;10.90;5.30;;;12.40;99.90;;;;;;5055118;28;20559;-81
2022/01/01 08:22:48;;;;;;;10.18;5.22;;;12.40;99.90;;;;;;5054875;28;20185;-80
2022/01/01 08:25:16;;;;;;;10.98;5.32;;;12.50;99.90;;;;;;5054930;28;20190;-80
2022/01/01 08:27:42;;;;;;;10.68;5.07;;;12.50;99.90;;;;;;5055168;28;20193;-80
2022/01/01 08:30:08;;;;;;;13.85;4.88;;;12.50;99.90;;;;;;5054442;28;20225;-80
2022/01/01 08:32:34;;;;;;;13.60;5.03;;;12.50;99.90;;;;;;5055026;28;20182;-81
2022/01/01 08:35:00;;;;;;;9.70;4.90;;;12.50;99.90;;;;;;5055148;28;20300;-81
2022/01/01 08:37:26;;;;;;;9.68;4.78;;;12.50;99.90;;;;;;5055100;28;20225;-80
2022/01/01 08:39:51;;;;;;;10.40;5.03;;;12.50;99.90;;;;;;5055118;28;20178;-80
2022/01/01 08:42:17;;;;;;;13.32;5.00;;;12.50;99.90;;;;;;5054678;28;20174;-82
2022/01/01 08:44:43;;;;;;;9.43;4.93;;;12.60;99.90;;;;;;5055184;28;20181;-82
2022/01/01 08:47:09;;;;;;;11.18;4.70;;;12.60;99.90;;;;;;5059918;28;20241;-83
2022/01/01 08:49:35;;;;;;;8.60;5.00;;;12.60;99.90;;;;;;5055568;28;20229;-82
2022/01/01 08:52:01;;;;;;;12.52;5.05;;;12.60;99.90;;;;;;5054549;28;20555;-81
2022/01/01 08:54:27;;;;;;;9.55;4.82;;;12.60;99.90;;;;;;5054924;28;20179;-81
2022/01/01 08:56:52;;;;;;;13.20;5.15;;;12.60;99.90;;;;;;5055483;28;20205;-80
2022/01/01 08:59:19;;;;;;;11.13;5.80;;;12.60;99.90;;;;;;5054070;28;20649;-80
2022/01/01 09:01:44;;;;;;;9.80;4.47;;;12.70;99.90;;;;;;5055248;28;20166;-81
2022/01/01 09:04:10;;;;;;;9.38;5.05;;;12.60;99.90;;;;;;5053948;28;20228;-81
2022/01/01 09:06:36;;;;;;;12.23;4.63;;;12.70;99.90;;;;;;5054157;28;20289;-80
2022/01/01 09:09:02;;;;;;;5.95;4.32;;;12.60;99.90;;;;;;5057602;28;20175;-80
2022/01/01 09:11:28;;;;;;;12.80;4.68;;;12.60;99.90;;;;;;5056761;28;20202;-80
2022/01/01 09:13:53;;;;;;;11.35;4.97;;;12.60;99.90;;;;;;5056351;28;20650;-80
2022/01/01 09:16:20;;;;;;;9.77;4.40;;;12.60;99.90;;;;;;5054077;28;20202;-80
2022/01/01 09:18:47;;;;;;;8.60;4.88;;;12.60;99.90;;;;;;5055245;28;20175;-80
2022/01/01 09:21:14;;;;;;;8.07;4.07;;;12.70;99.90;;;;;;5053741;28;20215;-81
2022/01/01 09:23:40;;;;;;;10.70;4.47;;;12.70;99.90;;;;;;5053676;28;20708;-81
2022/01/01 09:26:06;;;;;;;12.07;4.82;;;12.70;99.90;;;;;;5054826;28;20222;-82
2022/01/01 09:28:33;;;;;;;11.88;4.40;;;12.80;99.90;;;;;;5054895;28;20183;-82
2022/01/01 09:31:00;;;;;;;13.30;4.47;;;12.80;99.90;;;;;;5053390;28;20214;-82
2022/01/01 09:33:31;;;;;;;11.30;4.00;;;12.80;99.90;;;;;;5053116;28;20273;-82
2022/01/01 09:35:58;;;;;;;6.68;4.28;;;12.90;99.90;;;;;;5053403;28;20202;-81
2022/01/01 09:38:23;;;;;;;9.18;4.50;;;13.00;99.90;;;;;;5053385;28;20209;-81
2022/01/01 09:40:52;;;;;;;6.32;4.13;;;13.00;99.90;;;;;;5053726;28;20178;-81
2022/01/01 09:43:20;;;;;;;8.32;4.22;;;13.10;99.90;;;;;;5053627;28;20273;-81
2022/01/01 09:45:47;;;;;;;9.73;3.95;;;13.10;99.90;;;;;;5053414;28;20202;-81
2022/01/01 09:48:13;;;;;;;9.40;4.70;;;13.20;99.90;;;;;;5054557;28;20199;-82
2022/01/01 09:50:41;;;;;;;10.65;4.40;;;13.20;99.90;;;;;;5054729;28;20273;-81
2022/01/01 09:53:07;;;;;;;6.88;3.85;;;13.20;99.90;;;;;;5053272;28;20639;-82
2022/01/01 09:55:35;;;;;;;8.25;4.30;;;13.30;99.90;;;;;;5053295;28;20387;-81
2022/01/01 09:58:00;;;;;;;8.68;4.15;;;13.40;99.90;;;;;;5054455;28;20173;-80
2022/01/01 10:00:26;;;;;;;10.07;3.80;;;13.40;99.90;;;;;;5054471;28;20183;-81
2022/01/01 10:02:52;;;;;;;7.78;4.10;;;13.50;99.90;;;;;;5053324;28;20281;-81
2022/01/01 10:05:18;;;;;;;10.32;4.03;;;13.60;99.90;;;;;;5053122;28;20178;-81
2022/01/01 10:07:43;;;;;;;7.85;3.97;;;13.60;99.90;;;;;;5054221;28;20248;-82
2022/01/01 10:10:26;;;;;;;10.43;4.53;;;13.70;99.90;;;;;;5054820;28;20202;-83
2022/01/01 10:12:52;;;;;;;6.95;4.07;;;13.80;99.90;;;;;;5054383;28;20182;-82
2022/01/01 10:15:19;;;;;;;8.20;3.50;;;13.80;99.90;;;;;;5054671;28;20158;-80
2022/01/01 10:17:47;;;;;;;6.25;3.67;;;13.90;99.90;;;;;;5052944;28;20549;-80
2022/01/01 10:20:13;;;;;;;7.57;3.83;;;13.80;99.90;;;;;;5053257;28;20185;-81
2022/01/01 10:22:39;;;;;;;10.68;3.70;;;13.80;99.90;;;;;;5054473;28;20246;-81
2022/01/01 10:27:58;;;;;;;8.57;3.63;;;13.70;99.90;;;;;;5054525;28;20637;-80
2022/01/01 10:30:30;;;;;;;9.68;3.88;;;13.70;99.90;;;;;;5053544;28;20203;-79
2022/01/01 10:33:15;;;;;;;11.45;3.90;;;13.70;99.90;;;;;;5052898;28;20169;-80
2022/01/01 10:35:46;;;;;;;6.85;3.83;;;13.70;99.90;;;;;;5052890;28;20540;-79
2022/01/01 10:38:26;;;;;;;8.15;3.78;;;13.60;99.90;;;;;;5052741;28;20166;-79
2022/01/01 10:41:04;;;;;;;8.32;3.55;;;13.70;99.90;;;;;;5053228;28;20165;-79
2022/01/01 10:43:41;;;;;;;7.90;3.47;;;13.70;99.90;;;;;;5052947;28;20627;-79
2022/01/01 10:46:11;;;;;;;10.68;3.97;;;13.70;99.90;;;;;;5052837;28;20224;-80
2022/01/01 10:51:05;;;;;;;6.95;3.50;;;13.70;99.90;;;;;;5054884;28;20594;-79
2022/01/01 10:53:31;;;;;;;12.40;3.95;;;13.70;99.90;;;;;;5053170;28;20210;-80
2022/01/01 10:56:15;;;;;;;5.43;3.38;;;13.80;99.90;;;;;;5057723;28;20199;-80
2022/01/01 10:58:42;;;;;;;5.97;3.63;;;13.80;99.90;;;;;;5056867;28;20174;-80
2022/01/01 11:01:09;;;;;;;9.10;3.60;;;13.80;99.90;;;;;;5056299;28;20182;-80
2022/01/01 11:03:45;;;;;;;4.38;3.25;;;13.90;99.90;;;;;;5056138;28;20182;-80
2022/01/01 11:06:15;;;;;;;8.80;3.78;;;13.90;99.90;;;;;;5056742;28;20295;-81
2022/01/01 11:08:43;;;;;;;5.30;3.55;;;14.00;99.90;;;;;;5056314;28;20174;-81
2022/01/01 11:11:10;;;;;;;5.80;3.40;;;14.00;99.90;;;;;;5057671;28;20226;-81
2022/01/01 11:13:37;;;;;;;8.85;3.97;;;14.00;99.90;;;;;;5057631;28;20166;-81
2022/01/01 11:16:04;;;;;;;5.05;3.45;;;14.10;99.90;;;;;;5056219;28;20222;-82
2022/01/01 11:18:32;;;;;;;6.38;3.40;;;14.20;99.90;;;;;;5057001;28;20635;-84
2022/01/01 11:20:59;;;;;;;6.68;3.40;;;14.20;99.90;;;;;;5057918;28;20182;-83
2022/01/01 11:23:26;;;;;;;8.90;3.78;;;14.20;99.90;;;;;;5057993;28;20175;-86
2022/01/01 11:25:54;;;;;;;6.32;3.50;;;14.20;99.90;;;;;;5056903;28;20218;-87
2022/01/01 11:28:21;;;;;;;9.63;3.60;;;14.20;99.90;;;;;;5059660;28;20204;-83
2022/01/01 11:30:53;;;;;;;6.53;3.47;;;14.20;99.90;;;;;;5059491;28;20198;-83
2022/01/01 11:33:26;;;;;;;6.25;3.55;;;14.20;99.90;;;;;;5060854;28;20246;-84
2022/01/01 11:35:58;;;;;;;7.07;3.22;;;14.20;99.90;;;;;;5058574;28;20199;-84
2022/01/01 11:38:25;;;;;;;6.90;3.30;;;14.20;99.90;;;;;;5059158;28;20185;-84
2022/01/01 11:41:02;;;;;;;11.30;4.15;;;14.20;99.90;;;;;;5058750;28;20189;-84
2022/01/01 11:43:35;;;;;;;8.40;3.53;;;14.10;99.90;;;;;;5059515;28;20187;-84
2022/01/01 11:46:10;;;;;;;6.32;3.42;;;14.10;99.90;;;;;;5059802;28;20202;-84
2022/01/01 11:48:39;;;;;;;9.27;3.38;;;14.00;99.90;;;;;;5059973;28;20611;-84
2022/01/01 11:51:31;;;;;;;6.65;3.40;;;14.10;99.90;;;;;;5058312;28;20252;-84
2022/01/01 11:54:03;;;;;;;7.53;3.85;;;14.20;99.90;;;;;;5060182;28;20178;-84
2022/01/01 11:56:52;;;;;;;5.30;3.05;;;14.30;99.90;;;;;;5058322;28;20217;-84
2022/01/01 11:59:20;;;;;;;5.93;3.22;;;14.60;99.90;;;;;;5060082;28;20173;-84
2022/01/01 12:01:47;;;;;;;9.93;3.95;;;15.00;99.90;;;;;;5057579;28;20175;-84
2022/01/01 12:04:35;;;;;;;6.57;3.38;;;15.30;99.90;;;;;;5057373;28;20228;-84
2022/01/01 12:07:20;;;;;;;5.18;3.17;;;15.50;99.90;;;;;;5054595;28;20202;-88
2022/01/01 12:09:55;;;;;;;7.47;3.20;;;15.60;99.90;;;;;;5055256;28;20256;-83
2022/01/01 12:12:42;;;;;;;4.80;3.30;;;15.50;99.90;;;;;;5055227;28;20166;-84
2022/01/01 12:15:29;;;;;;;6.30;3.25;;;15.50;99.90;;;;;;5055281;28;20170;-85
2022/01/01 12:17:55;;;;;;;5.57;3.45;;;15.40;99.90;;;;;;5056019;28;20182;-86
2022/01/01 12:20:28;;;;;;;7.93;3.28;;;15.40;99.90;;;;;;5055679;28;20753;-84
2022/01/01 12:22:55;;;;;;;4.28;3.25;;;15.30;99.90;;;;;;5056902;28;20170;-83
2022/01/01 12:25:29;;;;;;;5.13;3.22;;;15.30;99.90;;;;;;5057886;28;20195;-80
2022/01/01 12:28:00;;;;;;;4.63;2.97;;;15.30;99.90;;;;;;5057865;28;20170;-85
2022/01/01 12:30:39;;;;;;;3.13;2.85;;;15.30;99.90;;;;;;5055939;28;20198;-86
2022/01/01 12:33:06;;;;;;;6.45;3.40;;;15.40;99.90;;;;;;5056349;28;20188;-85
2022/01/01 12:35:48;;;;;;;5.22;3.22;;;15.30;99.90;;;;;;5055437;28;20190;-83
2022/01/01 12:38:18;;;;;;;10.10;3.50;;;15.20;99.90;;;;;;5057144;28;20166;-83
2022/01/01 12:41:08;;;;;;;9.70;3.33;;;15.10;99.90;;;;;;5057972;28;20523;-86
2022/01/01 12:43:54;;;;;;;4.60;3.38;;;15.00;99.90;;;;;;5056997;28;20221;-87
2022/01/01 12:46:44;;;;;;;6.38;3.25;;;14.90;99.90;;;;;;5054901;28;20202;-83
2022/01/01 12:49:10;;;;;;;7.60;3.28;;;14.80;99.90;;;;;;5054376;28;20216;-84